Terminal Aerodrome Forecast
Issued by NWS

Home | Current Version | Previous Version | Text Only | Print | Product List | Glossary On
Versions: 1 2 3 4 5 6 7 8 9 10 11 12 13
000
FTUS42 TJSJ 041100
TAFISX
TAF
TISX 041121Z 0412/0512 07011KT P6SM VCSH SCT025 SCT050 BKN080
      TEMPO 0412/0414 VRB14G24KT -SHRA BKN025
     FM041430 09016G26KT P6SM SCT030 SCT080
     FM042300 07011KT P6SM FEW025 SCT040
      AMD NOT SKED=

USA.gov is the U.S. government's official web portal to all federal, state and local government web resources and services.